createdAt,value
2023-10-26T13:10:48.580Z,62.62
2023-10-26T13:13:17.750Z,63.24
2023-10-26T13:15:45.526Z,62.69
2023-10-26T13:18:13.352Z,62.58
2023-10-26T13:20:41.883Z,61.63
2023-10-26T13:23:09.814Z,60.75
2023-10-26T13:25:40.189Z,62.47
2023-10-26T13:28:07.988Z,61.02
2023-10-26T13:30:37.131Z,62.58
2023-10-26T13:33:06.557Z,62.61
2023-10-26T13:35:35.527Z,62.24
2023-10-26T13:38:03.394Z,61.78
2023-10-26T13:40:31.228Z,61.79
2023-10-26T13:42:59.204Z,62.36
2023-10-26T13:45:26.910Z,62.23
2023-10-26T13:47:56.030Z,61.66
2023-10-26T13:50:23.772Z,61.30
2023-10-26T13:52:51.676Z,60.86
2023-10-26T13:55:19.628Z,61.07
2023-10-26T13:57:47.379Z,60.26
2023-10-26T14:00:16.049Z,59.77
2023-10-26T14:02:43.860Z,60.76
2023-10-26T14:05:29.718Z,60.12
2023-10-26T14:07:58.669Z,60.56
2023-10-26T14:10:27.178Z,59.18
2023-10-26T14:12:54.948Z,58.98
2023-10-26T14:15:22.933Z,60.98
2023-10-26T14:17:50.656Z,60.50
2023-10-26T14:20:19.806Z,59.98
2023-10-26T14:22:48.134Z,60.14
2023-10-26T14:25:16.081Z,60.21
2023-10-26T14:27:43.847Z,60.87
2023-10-26T14:30:12.682Z,60.91
2023-10-26T14:32:40.488Z,60.70
2023-10-26T14:35:08.663Z,61.39
2023-10-26T14:37:37.762Z,60.70
2023-10-26T14:40:06.488Z,60.13
2023-10-26T14:42:34.428Z,60.52
2023-10-26T14:45:02.441Z,60.10
2023-10-26T14:47:30.390Z,61.24
2023-10-26T14:49:58.081Z,60.61
2023-10-26T14:52:25.846Z,60.77
2023-10-26T14:54:55.042Z,60.33
2023-10-26T14:57:22.743Z,61.04
2023-10-26T14:59:50.527Z,60.54
2023-10-26T15:02:18.379Z,61.33
